Alcala de Guadaira, Spain
Current Conditions -  °F | °C
As of 11:30 PM on Monday 24 Nov 2014 (Local Time) from LEZL Reporting Station
Clear Clear  
Wind Chill: 63°   Ceiling: Unl
Heat Index: 63°   Visibility: 6mi
Dew Point: 57°   Wind: 3mph
Humidity: 82%   Direction: 230°SW
Pressure: 30.06"   Gusts: NA
Location:  37.34°N, 5.84°W
Report Text: LEZL 242230Z 23003KT 190V250 CAVOK 17/14 Q1018 NOSIG
Loading
Personal Weather Stations






























Interactive Weather Map New forecast layout! Learn more

10-Day Weather Forecast

Advertisements
Track Severe Weather on mobile